createdAt,value
2023-02-26T00:00:15.093Z,10.85
2023-02-26T00:02:42.910Z,10.17
2023-02-26T00:05:09.989Z,7.03
2023-02-26T00:07:37.239Z,13.43
2023-02-26T00:10:05.784Z,7.05
2023-02-26T00:12:32.786Z,12.10
2023-02-26T00:15:03.054Z,5.80
2023-02-26T00:17:37.161Z,12.00
2023-02-26T00:20:05.875Z,10.52
2023-02-26T00:22:32.855Z,7.93
2023-02-26T00:24:59.626Z,11.07
2023-02-26T00:27:26.490Z,10.20
2023-02-26T00:29:53.710Z,8.73
2023-02-26T00:32:20.832Z,11.35
2023-02-26T00:34:48.031Z,10.40
2023-02-26T00:37:32.904Z,8.70
2023-02-26T00:40:09.045Z,7.78
2023-02-26T00:42:36.019Z,16.23
2023-02-26T00:45:03.901Z,13.52
2023-02-26T00:47:57.165Z,10.50
2023-02-26T00:50:25.414Z,9.07
2023-02-26T00:53:46.791Z,6.95
2023-02-26T00:56:14.333Z,13.85
2023-02-26T00:58:41.119Z,6.65
2023-02-26T01:01:08.553Z,11.18
2023-02-26T01:03:35.755Z,9.07
2023-02-26T01:06:02.765Z,11.02
2023-02-26T01:08:35.561Z,13.32
2023-02-26T01:11:02.896Z,15.50
2023-02-26T01:13:29.916Z,8.40
2023-02-26T01:16:01.903Z,7.90
2023-02-26T01:18:41.625Z,7.47
2023-02-26T01:21:10.229Z,5.30
2023-02-26T01:23:40.323Z,10.40
2023-02-26T01:26:10.912Z,7.63
2023-02-26T01:28:38.069Z,6.38
2023-02-26T01:31:05.907Z,4.40
2023-02-26T01:33:43.380Z,5.55
2023-02-26T01:36:12.671Z,7.75
2023-02-26T01:38:59.819Z,5.03
2023-02-26T01:41:30.806Z,3.83
2023-02-26T01:44:14.460Z,4.63
2023-02-26T01:46:56.452Z,4.88
2023-02-26T01:49:23.424Z,4.65
2023-02-26T01:52:21.017Z,9.00
2023-02-26T01:54:47.810Z,7.22
2023-02-26T01:57:17.812Z,5.80
2023-02-26T01:59:46.811Z,5.38
2023-02-26T02:02:15.051Z,9.27
2023-02-26T02:04:42.166Z,7.25
2023-02-26T02:07:09.096Z,7.03
2023-02-26T02:09:35.936Z,6.25
2023-02-26T02:12:30.067Z,5.38
2023-02-26T02:15:20.012Z,9.25
2023-02-26T02:18:04.653Z,9.68
2023-02-26T02:20:40.726Z,5.63
2023-02-26T02:23:18.947Z,7.05
2023-02-26T02:26:07.067Z,6.57
2023-02-26T02:28:55.619Z,9.15
2023-02-26T02:31:23.058Z,7.28
2023-02-26T02:34:01.675Z,7.90
2023-02-26T02:36:42.704Z,5.70
2023-02-26T02:39:16.569Z,5.43
2023-02-26T02:41:59.323Z,5.50
2023-02-26T02:44:26.691Z,5.55
2023-02-26T02:46:54.359Z,6.07
2023-02-26T02:49:32.349Z,4.45
2023-02-26T02:52:08.531Z,5.25
2023-02-26T02:54:42.515Z,8.80
2023-02-26T02:57:17.264Z,7.78
2023-02-26T02:59:49.224Z,6.40
2023-02-26T03:02:27.795Z,2.75
2023-02-26T03:04:55.069Z,6.07
2023-02-26T03:07:22.529Z,7.65
2023-02-26T03:09:51.968Z,3.90
2023-02-26T03:12:18.775Z,7.07
2023-02-26T03:14:46.175Z,5.13
2023-02-26T03:17:20.584Z,7.43
2023-02-26T03:20:09.425Z,5.13
2023-02-26T03:23:04.317Z,5.90
2023-02-26T03:25:39.035Z,4.43
2023-02-26T03:28:12.288Z,5.18
2023-02-26T03:30:44.075Z,6.10
2023-02-26T03:33:22.554Z,5.53
2023-02-26T03:36:11.566Z,7.00
2023-02-26T03:38:57.584Z,8.10
2023-02-26T03:41:49.817Z,7.43
2023-02-26T03:44:21.158Z,4.10
2023-02-26T03:46:51.862Z,4.30
2023-02-26T03:49:30.579Z,7.28
2023-02-26T03:51:59.257Z,4.05
2023-02-26T03:55:19.436Z,3.28
2023-02-26T03:58:04.553Z,3.42
2023-02-26T04:00:32.003Z,5.57
2023-02-26T04:03:23.118Z,6.03
2023-02-26T04:05:50.473Z,2.30
2023-02-26T04:08:19.315Z,7.10
2023-02-26T04:10:58.283Z,4.35
2023-02-26T04:13:25.152Z,4.68
2023-02-26T04:15:52.625Z,3.53
2023-02-26T04:18:20.764Z,4.78
2023-02-26T04:20:47.688Z,5.40
2023-02-26T04:23:14.599Z,4.45
2023-02-26T04:25:41.526Z,10.40
2023-02-26T04:28:09.624Z,4.65
2023-02-26T04:30:36.799Z,8.07
2023-02-26T04:33:05.381Z,3.72
2023-02-26T04:35:33.407Z,3.83
2023-02-26T04:38:00.197Z,4.65
2023-02-26T04:40:27.724Z,7.75
2023-02-26T04:42:54.662Z,4.63
2023-02-26T04:45:24.993Z,8.25
2023-02-26T04:47:52.521Z,3.80
2023-02-26T04:50:19.975Z,3.63
2023-02-26T04:52:49.357Z,7.75
2023-02-26T04:55:16.581Z,5.47
2023-02-26T04:57:43.480Z,7.60
2023-02-26T05:00:11.679Z,4.22
2023-02-26T05:02:39.813Z,5.80
2023-02-26T05:05:07.301Z,4.95
2023-02-26T05:07:34.469Z,5.10
2023-02-26T05:10:01.535Z,8.30
2023-02-26T05:12:28.590Z,2.85
2023-02-26T05:14:55.439Z,6.80
2023-02-26T05:17:23.574Z,4.07
2023-02-26T05:19:50.552Z,4.00
2023-02-26T05:22:17.550Z,4.25
2023-02-26T05:24:44.424Z,3.17
2023-02-26T05:27:11.318Z,5.18
2023-02-26T05:29:44.925Z,3.45
2023-02-26T05:32:13.535Z,1.60
2023-02-26T05:34:40.422Z,1.95
2023-02-26T05:37:07.312Z,3.40
2023-02-26T05:39:34.182Z,4.15
2023-02-26T05:42:01.072Z,4.00
2023-02-26T05:44:28.054Z,5.88
2023-02-26T05:46:54.886Z,2.75
2023-02-26T05:49:21.914Z,4.65
2023-02-26T05:51:48.856Z,2.72
2023-02-26T05:54:15.704Z,3.78
2023-02-26T05:56:42.545Z,7.57
2023-02-26T05:59:09.487Z,2.13
2023-02-26T06:01:37.468Z,2.85
2023-02-26T06:04:05.460Z,4.07
2023-02-26T06:06:32.668Z,1.30
2023-02-26T06:09:01.313Z,2.30
2023-02-26T06:11:33.028Z,3.92
2023-02-26T06:14:00.787Z,2.70
2023-02-26T06:16:28.202Z,3.63
2023-02-26T06:18:55.335Z,4.05
2023-02-26T06:21:22.153Z,3.28
2023-02-26T06:23:49.061Z,2.75
2023-02-26T06:26:15.925Z,2.47
2023-02-26T06:28:42.746Z,7.53
2023-02-26T06:31:09.669Z,2.15
2023-02-26T06:33:36.549Z,2.92
2023-02-26T06:36:03.570Z,4.00
2023-02-26T06:38:30.589Z,4.70
2023-02-26T06:40:57.494Z,6.10
2023-02-26T06:43:24.381Z,5.72
2023-02-26T06:45:51.566Z,3.70
2023-02-26T06:48:18.771Z,4.13
2023-02-26T06:50:45.578Z,2.25
2023-02-26T06:53:12.428Z,4.30
2023-02-26T06:55:43.931Z,2.55
2023-02-26T06:58:10.775Z,3.30
2023-02-26T07:00:38.039Z,5.50
2023-02-26T07:03:05.233Z,2.15
2023-02-26T07:05:32.122Z,1.67
2023-02-26T07:07:58.974Z,1.85
2023-02-26T07:10:25.844Z,3.75
2023-02-26T07:12:52.841Z,4.57
2023-02-26T07:15:19.680Z,3.72
2023-02-26T07:17:46.542Z,3.97
2023-02-26T07:20:14.063Z,2.30
2023-02-26T07:22:41.140Z,2.45
2023-02-26T07:25:08.327Z,2.28
2023-02-26T07:27:35.263Z,2.03
2023-02-26T07:30:02.321Z,3.40
2023-02-26T07:32:29.254Z,1.85
2023-02-26T07:34:56.285Z,9.07
2023-02-26T07:37:23.246Z,4.93
2023-02-26T07:39:50.288Z,2.28
2023-02-26T07:42:17.292Z,4.30
2023-02-26T07:44:44.299Z,1.80
2023-02-26T07:47:11.369Z,1.95
2023-02-26T07:49:38.272Z,2.22
2023-02-26T07:52:07.083Z,3.28
2023-02-26T07:54:37.267Z,1.40
2023-02-26T07:57:04.208Z,1.95
2023-02-26T07:59:31.082Z,1.02
2023-02-26T08:01:58.029Z,1.73
2023-02-26T08:04:24.933Z,4.53
2023-02-26T08:06:54.566Z,2.83
2023-02-26T08:09:22.087Z,2.80
2023-02-26T08:11:48.937Z,3.78
2023-02-26T08:14:15.803Z,1.98
2023-02-26T08:16:42.634Z,2.17
2023-02-26T08:19:09.550Z,3.08
2023-02-26T08:21:36.426Z,7.13
2023-02-26T08:24:03.285Z,1.15
2023-02-26T08:26:30.183Z,1.65
2023-02-26T08:28:57.012Z,1.10
2023-02-26T08:31:24.036Z,1.88
2023-02-26T08:33:51.054Z,2.60
2023-02-26T08:36:17.907Z,3.00
2023-02-26T08:38:44.742Z,2.20
2023-02-26T08:41:12.014Z,3.30
2023-02-26T08:43:38.826Z,0.95
2023-02-26T08:46:05.781Z,9.25
2023-02-26T08:48:32.730Z,1.27
2023-02-26T08:50:59.530Z,6.47
2023-02-26T08:53:26.507Z,3.00
2023-02-26T08:55:53.487Z,1.85
2023-02-26T08:58:20.472Z,2.20
2023-02-26T09:00:47.314Z,1.80
2023-02-26T09:03:14.220Z,1.75
2023-02-26T09:05:41.021Z,2.22
2023-02-26T09:08:08.221Z,1.60
2023-02-26T09:10:35.151Z,3.70
2023-02-26T09:13:02.019Z,2.10
2023-02-26T09:15:29.969Z,2.85
2023-02-26T09:17:58.546Z,1.30
2023-02-26T09:20:25.471Z,2.00
2023-02-26T09:22:52.295Z,5.68
2023-02-26T09:25:19.202Z,1.95
2023-02-26T09:27:46.010Z,2.95
2023-02-26T09:30:13.534Z,1.77
2023-02-26T09:32:40.452Z,2.80
2023-02-26T09:35:07.634Z,4.57
2023-02-26T09:37:34.496Z,0.65
2023-02-26T09:40:01.369Z,1.20
2023-02-26T09:43:03.601Z,2.03
2023-02-26T09:45:35.776Z,1.13
2023-02-26T09:48:04.705Z,1.73
2023-02-26T09:51:06.937Z,1.55
2023-02-26T09:53:35.763Z,1.35
2023-02-26T09:56:08.438Z,2.42
2023-02-26T09:58:40.132Z,3.33
2023-02-26T10:01:16.698Z,1.33
2023-02-26T10:04:15.869Z,2.15
2023-02-26T10:07:02.145Z,2.30
2023-02-26T10:09:34.753Z,2.72
2023-02-26T10:12:15.710Z,3.55
2023-02-26T10:15:13.370Z,1.60
2023-02-26T10:17:53.111Z,3.17
2023-02-26T10:20:32.393Z,1.95
2023-02-26T10:23:24.565Z,3.08
2023-02-26T10:25:59.027Z,2.17
2023-02-26T10:28:32.029Z,1.88
2023-02-26T10:31:09.327Z,3.15
2023-02-26T10:33:59.295Z,3.78
2023-02-26T10:36:29.181Z,2.28
2023-02-26T10:39:03.828Z,1.75
2023-02-26T10:41:32.083Z,2.80
2023-02-26T10:44:11.969Z,1.58
2023-02-26T10:46:45.003Z,1.90
2023-02-26T10:49:38.035Z,3.55
2023-02-26T10:52:23.341Z,1.15
2023-02-26T10:55:18.401Z,4.07
2023-02-26T10:57:50.667Z,1.20
2023-02-26T11:00:19.512Z,0.68
2023-02-26T11:02:47.526Z,2.85
2023-02-26T11:05:30.114Z,2.35
2023-02-26T11:08:32.065Z,1.23
2023-02-26T11:11:00.666Z,1.23
2023-02-26T11:13:29.240Z,2.40
2023-02-26T11:16:03.040Z,1.58
2023-02-26T11:18:39.755Z,2.33
2023-02-26T11:21:06.968Z,1.25
2023-02-26T11:23:33.863Z,1.85
2023-02-26T11:26:07.399Z,1.83
2023-02-26T11:28:48.693Z,0.98
2023-02-26T11:31:18.991Z,1.33
2023-02-26T11:33:50.721Z,1.55
2023-02-26T11:36:18.950Z,1.80
2023-02-26T11:38:53.964Z,1.73
2023-02-26T11:41:20.784Z,2.00
2023-02-26T11:43:56.579Z,2.35
2023-02-26T11:46:24.459Z,2.75
2023-02-26T11:48:51.390Z,0.50
2023-02-26T11:51:23.228Z,1.80
2023-02-26T11:54:01.457Z,2.83
2023-02-26T11:56:40.448Z,2.50
2023-02-26T11:59:16.957Z,0.88
2023-02-26T12:01:43.826Z,2.40
2023-02-26T12:04:11.742Z,2.22
2023-02-26T12:06:38.672Z,1.38
2023-02-26T12:09:11.077Z,1.23
2023-02-26T12:11:59.538Z,0.70
2023-02-26T12:14:48.571Z,1.58
2023-02-26T12:17:21.656Z,1.17
2023-02-26T12:19:48.467Z,1.70
2023-02-26T12:22:35.925Z,2.47
2023-02-26T12:25:22.302Z,1.35
2023-02-26T12:28:04.173Z,1.85
2023-02-26T12:30:56.906Z,1.65
2023-02-26T12:33:48.032Z,1.48
2023-02-26T12:36:48.289Z,1.10
2023-02-26T12:39:46.835Z,5.30
2023-02-26T12:42:32.392Z,1.17
2023-02-26T12:45:11.011Z,1.20
2023-02-26T12:47:57.027Z,0.95
2023-02-26T12:50:50.644Z,2.90
2023-02-26T12:53:44.228Z,3.40
2023-02-26T12:56:19.971Z,1.52
2023-02-26T12:59:23.428Z,3.55
2023-02-26T13:02:00.905Z,3.00
2023-02-26T13:04:28.914Z,2.00
2023-02-26T13:07:01.737Z,1.05
2023-02-26T13:09:46.063Z,0.88
2023-02-26T13:12:37.764Z,1.02
2023-02-26T13:15:18.013Z,1.42
2023-02-26T13:17:51.647Z,2.67
2023-02-26T13:20:22.559Z,1.23
2023-02-26T13:22:52.864Z,0.85
2023-02-26T13:25:31.029Z,1.88
2023-02-26T13:27:58.176Z,1.35
2023-02-26T13:30:25.162Z,1.70
2023-02-26T13:32:54.476Z,1.75
2023-02-26T13:35:27.177Z,3.65
2023-02-26T13:37:56.330Z,3.72
2023-02-26T13:40:41.337Z,1.40
2023-02-26T13:43:32.537Z,2.45
2023-02-26T13:46:21.279Z,2.03
2023-02-26T13:48:53.705Z,2.63
2023-02-26T13:51:32.464Z,2.17
2023-02-26T13:54:22.604Z,1.08
2023-02-26T13:57:21.350Z,2.67
2023-02-26T14:00:15.376Z,1.98
2023-02-26T14:02:50.242Z,1.30
2023-02-26T14:05:36.196Z,3.65
2023-02-26T14:08:19.769Z,1.65
2023-02-26T14:13:21.372Z,2.95
2023-02-26T14:16:12.970Z,2.08
2023-02-26T14:18:39.925Z,1.05
2023-02-26T14:21:27.425Z,1.73
2023-02-26T14:23:59.146Z,1.00
2023-02-26T14:26:26.290Z,1.85
2023-02-26T14:29:05.359Z,0.80
2023-02-26T14:31:50.706Z,0.65
2023-02-26T14:34:25.158Z,1.42
2023-02-26T14:36:53.868Z,1.42
2023-02-26T14:39:31.653Z,1.70
2023-02-26T14:42:06.706Z,2.22
2023-02-26T14:44:39.398Z,1.30
2023-02-26T14:47:06.358Z,1.77
2023-02-26T14:49:37.858Z,1.30
2023-02-26T14:52:14.993Z,3.97
2023-02-26T14:55:09.517Z,1.38
2023-02-26T14:57:58.738Z,1.70
2023-02-26T15:00:46.397Z,1.15
2023-02-26T15:03:52.386Z,1.85
2023-02-26T15:06:53.001Z,1.48
2023-02-26T15:09:49.089Z,2.65
2023-02-26T15:12:34.746Z,1.23
2023-02-26T15:15:26.420Z,2.05
2023-02-26T15:18:14.017Z,1.48
2023-02-26T15:20:54.012Z,1.48
2023-02-26T15:23:31.474Z,1.40
2023-02-26T15:25:58.427Z,2.20
2023-02-26T15:28:33.180Z,0.77
2023-02-26T15:31:00.794Z,3.03
2023-02-26T15:33:27.768Z,1.90
2023-02-26T15:35:55.650Z,2.08
2023-02-26T15:38:23.100Z,1.52
2023-02-26T15:40:51.241Z,2.70
2023-02-26T15:43:22.024Z,1.20
2023-02-26T15:45:49.058Z,2.67
2023-02-26T15:48:32.454Z,1.13
2023-02-26T15:51:01.569Z,1.63
2023-02-26T15:53:36.074Z,3.50
2023-02-26T15:56:06.484Z,1.48
2023-02-26T15:58:37.748Z,2.30
2023-02-26T16:01:05.164Z,1.20
2023-02-26T16:03:34.431Z,3.72
2023-02-26T16:06:01.305Z,0.98
2023-02-26T16:08:28.377Z,4.78
2023-02-26T16:10:56.691Z,4.53
2023-02-26T16:13:31.621Z,1.05
2023-02-26T16:16:32.447Z,1.13
2023-02-26T16:18:59.435Z,1.05
2023-02-26T16:21:31.565Z,1.15
2023-02-26T16:23:58.942Z,1.50
2023-02-26T16:26:33.298Z,2.08
2023-02-26T16:29:33.565Z,1.20
2023-02-26T16:32:02.306Z,2.47
2023-02-26T16:34:51.232Z,1.10
2023-02-26T16:37:34.148Z,1.17
2023-02-26T16:40:25.546Z,2.75
2023-02-26T16:42:55.190Z,2.92
2023-02-26T16:45:37.558Z,2.13
2023-02-26T16:48:06.686Z,2.00
2023-02-26T16:50:35.436Z,2.22
2023-02-26T16:53:06.886Z,5.57
2023-02-26T16:55:35.399Z,2.60
2023-02-26T16:58:07.393Z,2.42
2023-02-26T17:00:35.645Z,6.50
2023-02-26T17:03:14.234Z,3.38
2023-02-26T17:06:03.756Z,1.80
2023-02-26T17:08:42.255Z,3.20
2023-02-26T17:11:10.336Z,2.58
2023-02-26T17:13:38.460Z,0.73
2023-02-26T17:16:07.645Z,1.63
2023-02-26T17:18:34.604Z,2.38
2023-02-26T17:21:05.603Z,1.92
2023-02-26T17:23:36.943Z,1.02
2023-02-26T17:26:04.430Z,1.63
2023-02-26T17:28:35.542Z,0.93
2023-02-26T17:31:02.888Z,1.10
2023-02-26T17:33:29.779Z,1.08
2023-02-26T17:35:58.860Z,1.80
2023-02-26T17:38:25.765Z,1.25
2023-02-26T17:40:55.582Z,4.15
2023-02-26T17:43:22.788Z,0.77
2023-02-26T17:45:49.849Z,2.38
2023-02-26T17:48:17.053Z,1.08
2023-02-26T17:50:56.306Z,3.88
2023-02-26T17:53:24.479Z,1.85
2023-02-26T17:55:53.294Z,1.38
2023-02-26T17:58:28.409Z,0.80
2023-02-26T18:00:55.603Z,0.90
2023-02-26T18:03:23.289Z,1.00
2023-02-26T18:05:51.335Z,0.57
2023-02-26T18:08:25.174Z,0.85
2023-02-26T18:10:52.705Z,1.85
2023-02-26T18:13:19.841Z,1.40
2023-02-26T18:15:46.997Z,1.08
2023-02-26T18:18:14.281Z,2.45
2023-02-26T18:20:41.352Z,2.15
2023-02-26T18:23:08.538Z,4.00
2023-02-26T18:25:36.972Z,11.98
2023-02-26T18:28:05.136Z,3.25
2023-02-26T18:30:34.006Z,4.32
2023-02-26T18:33:01.109Z,4.30
2023-02-26T18:35:28.996Z,3.42
2023-02-26T18:37:55.977Z,1.73
2023-02-26T18:40:23.987Z,2.22
2023-02-26T18:42:51.327Z,2.75
2023-02-26T18:45:19.086Z,2.35
2023-02-26T18:47:46.554Z,1.38
2023-02-26T18:50:14.927Z,2.25
2023-02-26T18:52:43.223Z,2.35
2023-02-26T18:55:13.046Z,1.23
2023-02-26T18:57:40.465Z,0.73
2023-02-26T19:00:09.160Z,1.60
2023-02-26T19:02:36.044Z,4.13
2023-02-26T19:05:03.013Z,1.25
2023-02-26T19:07:30.035Z,1.30
2023-02-26T19:09:56.914Z,0.93
2023-02-26T19:12:24.567Z,1.20
2023-02-26T19:14:51.640Z,2.25
2023-02-26T19:17:18.962Z,2.40
2023-02-26T19:19:46.536Z,6.30
2023-02-26T19:22:14.169Z,0.93
2023-02-26T19:24:42.021Z,0.80
2023-02-26T19:27:09.423Z,0.98
2023-02-26T19:29:36.922Z,0.68
2023-02-26T19:32:07.074Z,0.57
2023-02-26T19:34:34.253Z,0.70
2023-02-26T19:37:01.119Z,1.15
2023-02-26T19:39:28.071Z,0.95
2023-02-26T19:41:55.521Z,1.75
2023-02-26T19:44:22.806Z,3.42
2023-02-26T19:46:49.938Z,2.03
2023-02-26T19:49:17.134Z,2.05
2023-02-26T19:51:44.139Z,2.22
2023-02-26T19:54:12.873Z,1.98
2023-02-26T19:56:40.287Z,2.28
2023-02-26T19:59:07.685Z,3.92
2023-02-26T20:01:35.206Z,1.02
2023-02-26T20:04:02.520Z,1.70
2023-02-26T20:06:29.595Z,3.13
2023-02-26T20:08:56.714Z,1.60
2023-02-26T20:11:23.593Z,2.30
2023-02-26T20:13:50.482Z,1.60
2023-02-26T20:16:17.304Z,2.38
2023-02-26T20:18:45.903Z,6.88
2023-02-26T20:21:13.005Z,3.00
2023-02-26T20:23:40.054Z,2.22
2023-02-26T20:26:11.808Z,2.55
2023-02-26T20:28:38.748Z,3.78
2023-02-26T20:31:05.868Z,2.40
2023-02-26T20:33:33.350Z,4.15
2023-02-26T20:36:00.456Z,2.28
2023-02-26T20:38:28.262Z,2.13
2023-02-26T20:40:55.375Z,3.58
2023-02-26T20:43:22.540Z,1.42
2023-02-26T20:45:49.566Z,2.25
2023-02-26T20:48:16.520Z,1.45
2023-02-26T20:50:43.726Z,2.42
2023-02-26T20:53:10.526Z,1.63
2023-02-26T20:55:37.950Z,0.88
2023-02-26T20:58:04.794Z,1.90
2023-02-26T21:00:31.833Z,1.77
2023-02-26T21:02:58.825Z,2.17
2023-02-26T21:05:25.864Z,2.95
2023-02-26T21:07:52.851Z,2.10
2023-02-26T21:10:20.164Z,2.83
2023-02-26T21:12:52.447Z,2.47
2023-02-26T21:15:19.838Z,6.00
2023-02-26T21:17:46.826Z,1.17
2023-02-26T21:20:18.193Z,2.58
2023-02-26T21:22:45.814Z,1.85
2023-02-26T21:25:13.066Z,2.67
2023-02-26T21:27:40.073Z,2.33
2023-02-26T21:30:08.306Z,1.52
2023-02-26T21:32:35.275Z,6.55
2023-02-26T21:35:02.326Z,1.70
2023-02-26T21:37:29.333Z,4.45
2023-02-26T21:39:56.420Z,1.55
2023-02-26T21:42:23.353Z,1.10
2023-02-26T21:44:50.293Z,1.90
2023-02-26T21:47:17.505Z,1.98
2023-02-26T21:49:44.751Z,2.30
2023-02-26T21:52:12.047Z,1.40
2023-02-26T21:54:38.897Z,2.40
2023-02-26T21:57:05.931Z,1.98
2023-02-26T21:59:32.970Z,1.83
2023-02-26T22:01:59.925Z,2.28
2023-02-26T22:04:26.918Z,2.92
2023-02-26T22:06:53.927Z,3.55
2023-02-26T22:09:21.323Z,1.02
2023-02-26T22:11:48.287Z,1.13
2023-02-26T22:14:15.306Z,2.72
2023-02-26T22:16:42.174Z,1.52
2023-02-26T22:19:09.265Z,2.63
2023-02-26T22:21:38.928Z,1.75
2023-02-26T22:24:06.617Z,2.80
2023-02-26T22:26:33.459Z,2.38
2023-02-26T22:29:00.835Z,1.27
2023-02-26T22:31:28.885Z,0.93
2023-02-26T22:33:57.364Z,3.88
2023-02-26T22:36:25.168Z,4.50
2023-02-26T22:38:52.037Z,2.17
2023-02-26T22:41:18.863Z,1.15
2023-02-26T22:43:45.652Z,2.65
2023-02-26T22:46:12.519Z,1.75
2023-02-26T22:48:39.314Z,2.58
2023-02-26T22:51:06.319Z,1.63
2023-02-26T22:53:35.918Z,1.10
2023-02-26T22:56:02.748Z,2.30
2023-02-26T22:58:29.582Z,1.70
2023-02-26T23:01:06.347Z,7.55
2023-02-26T23:03:33.301Z,3.97
2023-02-26T23:06:00.474Z,2.38
2023-02-26T23:08:27.603Z,1.27
2023-02-26T23:10:56.196Z,11.93
2023-02-26T23:13:23.442Z,9.35
2023-02-26T23:15:50.477Z,1.40
2023-02-26T23:18:17.499Z,1.77
2023-02-26T23:20:44.502Z,3.47
2023-02-26T23:23:11.620Z,2.00
2023-02-26T23:25:40.544Z,2.40
2023-02-26T23:28:08.570Z,3.63
2023-02-26T23:30:35.921Z,2.00
2023-02-26T23:33:03.942Z,1.33
2023-02-26T23:35:30.907Z,1.02
2023-02-26T23:37:57.805Z,1.38
2023-02-26T23:40:24.723Z,0.90
2023-02-26T23:42:51.818Z,1.60
2023-02-26T23:45:18.705Z,1.85
2023-02-26T23:47:45.565Z,1.40
2023-02-26T23:50:12.421Z,1.40
2023-02-26T23:52:39.326Z,1.55
2023-02-26T23:55:06.796Z,1.23
2023-02-26T23:57:33.661Z,1.00
